sensor_id;sensor_type;location;lat;lon;timestamp;temperature;humidity
20398;DHT22;10358;49.590;11.030;2023-06-19T00:00:37;20.60;73.70
20398;DHT22;10358;49.590;11.030;2023-06-19T00:03:05;20.50;73.40
20398;DHT22;10358;49.590;11.030;2023-06-19T00:05:30;20.60;73.00
20398;DHT22;10358;49.590;11.030;2023-06-19T00:07:56;20.60;72.90
20398;DHT22;10358;49.590;11.030;2023-06-19T00:10:21;20.60;72.90
20398;DHT22;10358;49.590;11.030;2023-06-19T00:12:47;20.50;73.00
20398;DHT22;10358;49.590;11.030;2023-06-19T00:15:12;20.50;73.70
20398;DHT22;10358;49.590;11.030;2023-06-19T00:17:38;20.50;74.00
20398;DHT22;10358;49.590;11.030;2023-06-19T00:20:04;20.50;73.90
20398;DHT22;10358;49.590;11.030;2023-06-19T00:22:33;20.50;75.40
20398;DHT22;10358;49.590;11.030;2023-06-19T00:25:00;20.50;76.60
20398;DHT22;10358;49.590;11.030;2023-06-19T00:27:25;20.50;77.30
20398;DHT22;10358;49.590;11.030;2023-06-19T00:29:51;20.40;78.90
20398;DHT22;10358;49.590;11.030;2023-06-19T00:32:17;20.40;80.60
20398;DHT22;10358;49.590;11.030;2023-06-19T00:34:42;20.30;81.80
20398;DHT22;10358;49.590;11.030;2023-06-19T00:37:09;20.30;83.00
20398;DHT22;10358;49.590;11.030;2023-06-19T00:39:35;20.30;83.80
20398;DHT22;10358;49.590;11.030;2023-06-19T00:42:01;20.30;85.10
20398;DHT22;10358;49.590;11.030;2023-06-19T00:44:26;20.30;85.40
20398;DHT22;10358;49.590;11.030;2023-06-19T00:46:57;20.30;86.20
20398;DHT22;10358;49.590;11.030;2023-06-19T00:49:24;20.20;87.10
20398;DHT22;10358;49.590;11.030;2023-06-19T00:51:51;20.20;88.30
20398;DHT22;10358;49.590;11.030;2023-06-19T00:54:17;20.20;89.00
20398;DHT22;10358;49.590;11.030;2023-06-19T00:56:44;20.20;89.60
20398;DHT22;10358;49.590;11.030;2023-06-19T00:59:16;20.20;90.20
20398;DHT22;10358;49.590;11.030;2023-06-19T01:01:43;20.20;90.70
20398;DHT22;10358;49.590;11.030;2023-06-19T01:04:08;20.20;91.10
20398;DHT22;10358;49.590;11.030;2023-06-19T01:06:45;20.20;91.40
20398;DHT22;10358;49.590;11.030;2023-06-19T01:09:15;20.10;91.60
20398;DHT22;10358;49.590;11.030;2023-06-19T01:11:48;20.10;91.90
20398;DHT22;10358;49.590;11.030;2023-06-19T01:14:22;20.00;92.10
20398;DHT22;10358;49.590;11.030;2023-06-19T01:16:50;20.00;92.50
20398;DHT22;10358;49.590;11.030;2023-06-19T01:19:19;19.90;93.30
20398;DHT22;10358;49.590;11.030;2023-06-19T01:21:46;19.80;93.40
20398;DHT22;10358;49.590;11.030;2023-06-19T01:24:12;19.80;93.90
20398;DHT22;10358;49.590;11.030;2023-06-19T01:26:38;19.70;94.50
20398;DHT22;10358;49.590;11.030;2023-06-19T01:29:04;19.60;95.20
20398;DHT22;10358;49.590;11.030;2023-06-19T01:31:35;19.50;95.70
20398;DHT22;10358;49.590;11.030;2023-06-19T01:34:04;19.40;96.40
20398;DHT22;10358;49.590;11.030;2023-06-19T01:36:32;19.40;97.30
20398;DHT22;10358;49.590;11.030;2023-06-19T01:38:58;19.40;98.10
20398;DHT22;10358;49.590;11.030;2023-06-19T01:41:25;19.30;99.30
20398;DHT22;10358;49.590;11.030;2023-06-19T01:43:52;19.30;99.90
20398;DHT22;10358;49.590;11.030;2023-06-19T01:46:18;19.20;99.90
20398;DHT22;10358;49.590;11.030;2023-06-19T01:48:43;19.20;99.90
20398;DHT22;10358;49.590;11.030;2023-06-19T01:51:09;19.10;99.90
20398;DHT22;10358;49.590;11.030;2023-06-19T01:53:35;19.10;99.90
20398;DHT22;10358;49.590;11.030;2023-06-19T01:56:01;19.00;99.90
20398;DHT22;10358;49.590;11.030;2023-06-19T01:58:26;18.90;99.90
20398;DHT22;10358;49.590;11.030;2023-06-19T02:00:52;19.00;99.90
20398;DHT22;10358;49.590;11.030;2023-06-19T02:03:18;18.80;99.90
20398;DHT22;10358;49.590;11.030;2023-06-19T02:05:43;18.80;99.90
20398;DHT22;10358;49.590;11.030;2023-06-19T02:08:09;18.80;99.90
20398;DHT22;10358;49.590;11.030;2023-06-19T02:10:34;18.70;99.90
20398;DHT22;10358;49.590;11.030;2023-06-19T02:13:00;18.70;99.90
20398;DHT22;10358;49.590;11.030;2023-06-19T02:15:26;18.70;99.90
20398;DHT22;10358;49.590;11.030;2023-06-19T02:17:51;18.70;99.90
20398;DHT22;10358;49.590;11.030;2023-06-19T02:20:23;18.70;99.90
20398;DHT22;10358;49.590;11.030;2023-06-19T02:22:51;18.70;99.90
20398;DHT22;10358;49.590;11.030;2023-06-19T02:25:17;18.60;99.90
20398;DHT22;10358;49.590;11.030;2023-06-19T02:27:43;18.60;99.90
20398;DHT22;10358;49.590;11.030;2023-06-19T02:30:09;18.50;99.90
20398;DHT22;10358;49.590;11.030;2023-06-19T02:32:34;18.50;99.90
20398;DHT22;10358;49.590;11.030;2023-06-19T02:35:00;18.50;99.90
20398;DHT22;10358;49.590;11.030;2023-06-19T02:37:25;18.40;99.90
20398;DHT22;10358;49.590;11.030;2023-06-19T02:39:51;18.30;99.90
20398;DHT22;10358;49.590;11.030;2023-06-19T02:42:17;18.20;99.90
20398;DHT22;10358;49.590;11.030;2023-06-19T02:44:42;18.20;99.90
20398;DHT22;10358;49.590;11.030;2023-06-19T02:47:08;18.10;99.90
20398;DHT22;10358;49.590;11.030;2023-06-19T02:49:34;18.00;99.90
20398;DHT22;10358;49.590;11.030;2023-06-19T02:51:59;18.00;99.90
20398;DHT22;10358;49.590;11.030;2023-06-19T02:54:25;18.00;99.90
20398;DHT22;10358;49.590;11.030;2023-06-19T02:56:51;17.30;99.90
20398;DHT22;10358;49.590;11.030;2023-06-19T02:59:16;18.00;99.90
20398;DHT22;10358;49.590;11.030;2023-06-19T03:01:42;18.00;99.90
20398;DHT22;10358;49.590;11.030;2023-06-19T03:04:07;18.00;99.90
20398;DHT22;10358;49.590;11.030;2023-06-19T03:06:33;18.00;99.90
20398;DHT22;10358;49.590;11.030;2023-06-19T03:09:04;18.10;99.90
20398;DHT22;10358;49.590;11.030;2023-06-19T03:11:30;18.00;99.90
20398;DHT22;10358;49.590;11.030;2023-06-19T03:13:56;18.00;99.90
20398;DHT22;10358;49.590;11.030;2023-06-19T03:16:22;17.90;99.90
20398;DHT22;10358;49.590;11.030;2023-06-19T03:18:47;17.90;99.90
20398;DHT22;10358;49.590;11.030;2023-06-19T03:21:15;17.90;99.90
20398;DHT22;10358;49.590;11.030;2023-06-19T03:23:41;17.90;99.90
20398;DHT22;10358;49.590;11.030;2023-06-19T03:26:07;17.90;99.90
20398;DHT22;10358;49.590;11.030;2023-06-19T03:28:33;17.90;99.90
20398;DHT22;10358;49.590;11.030;2023-06-19T03:30:59;18.00;99.90
20398;DHT22;10358;49.590;11.030;2023-06-19T03:33:25;18.00;99.90
20398;DHT22;10358;49.590;11.030;2023-06-19T03:35:51;18.00;99.90
20398;DHT22;10358;49.590;11.030;2023-06-19T03:38:17;18.00;99.90
20398;DHT22;10358;49.590;11.030;2023-06-19T03:40:42;18.10;99.90
20398;DHT22;10358;49.590;11.030;2023-06-19T03:43:08;18.10;99.90
20398;DHT22;10358;49.590;11.030;2023-06-19T03:45:34;18.10;99.90
20398;DHT22;10358;49.590;11.030;2023-06-19T03:47:59;18.20;99.90
20398;DHT22;10358;49.590;11.030;2023-06-19T03:50:25;18.20;99.90
20398;DHT22;10358;49.590;11.030;2023-06-19T03:52:50;18.30;99.90
20398;DHT22;10358;49.590;11.030;2023-06-19T03:55:16;18.30;99.90
20398;DHT22;10358;49.590;11.030;2023-06-19T03:57:41;18.50;99.90
20398;DHT22;10358;49.590;11.030;2023-06-19T04:00:07;18.50;99.90
20398;DHT22;10358;49.590;11.030;2023-06-19T04:02:33;18.60;99.90
20398;DHT22;10358;49.590;11.030;2023-06-19T04:04:59;18.70;99.90
20398;DHT22;10358;49.590;11.030;2023-06-19T04:07:25;18.70;99.90
20398;DHT22;10358;49.590;11.030;2023-06-19T04:09:51;18.70;99.90
20398;DHT22;10358;49.590;11.030;2023-06-19T04:12:16;18.70;99.90
20398;DHT22;10358;49.590;11.030;2023-06-19T04:14:42;18.80;99.90
20398;DHT22;10358;49.590;11.030;2023-06-19T04:17:07;18.80;99.90
20398;DHT22;10358;49.590;11.030;2023-06-19T04:19:33;18.90;99.90
20398;DHT22;10358;49.590;11.030;2023-06-19T04:21:58;18.90;99.90
20398;DHT22;10358;49.590;11.030;2023-06-19T04:24:24;19.00;99.90
20398;DHT22;10358;49.590;11.030;2023-06-19T04:26:49;19.10;99.90
20398;DHT22;10358;49.590;11.030;2023-06-19T04:29:15;19.20;99.90
20398;DHT22;10358;49.590;11.030;2023-06-19T04:31:45;19.20;99.90
20398;DHT22;10358;49.590;11.030;2023-06-19T04:34:14;19.20;99.90
20398;DHT22;10358;49.590;11.030;2023-06-19T04:36:49;19.40;99.90
20398;DHT22;10358;49.590;11.030;2023-06-19T04:39:14;19.40;99.90
20398;DHT22;10358;49.590;11.030;2023-06-19T04:41:43;19.50;99.90
20398;DHT22;10358;49.590;11.030;2023-06-19T04:44:12;19.50;99.90
20398;DHT22;10358;49.590;11.030;2023-06-19T04:46:38;19.60;99.90
20398;DHT22;10358;49.590;11.030;2023-06-19T04:49:05;19.70;99.90
20398;DHT22;10358;49.590;11.030;2023-06-19T04:51:31;19.70;99.90
20398;DHT22;10358;49.590;11.030;2023-06-19T04:53:59;19.70;99.90
20398;DHT22;10358;49.590;11.030;2023-06-19T04:56:24;19.80;99.90
20398;DHT22;10358;49.590;11.030;2023-06-19T04:58:50;19.90;99.90
20398;DHT22;10358;49.590;11.030;2023-06-19T05:01:17;19.90;99.90
20398;DHT22;10358;49.590;11.030;2023-06-19T05:03:45;20.00;99.90
20398;DHT22;10358;49.590;11.030;2023-06-19T05:06:11;20.10;99.90
20398;DHT22;10358;49.590;11.030;2023-06-19T05:08:37;20.20;99.90
20398;DHT22;10358;49.590;11.030;2023-06-19T05:11:02;20.20;99.90
20398;DHT22;10358;49.590;11.030;2023-06-19T05:13:28;20.40;99.90
20398;DHT22;10358;49.590;11.030;2023-06-19T05:15:54;20.50;99.90
20398;DHT22;10358;49.590;11.030;2023-06-19T05:18:21;20.50;99.90
20398;DHT22;10358;49.590;11.030;2023-06-19T05:20:46;20.60;99.90
20398;DHT22;10358;49.590;11.030;2023-06-19T05:23:12;20.70;99.90
20398;DHT22;10358;49.590;11.030;2023-06-19T05:25:37;20.80;99.90
20398;DHT22;10358;49.590;11.030;2023-06-19T05:28:03;20.80;99.90
20398;DHT22;10358;49.590;11.030;2023-06-19T05:30:29;20.90;99.90
20398;DHT22;10358;49.590;11.030;2023-06-19T05:32:55;21.00;99.90
20398;DHT22;10358;49.590;11.030;2023-06-19T05:35:20;21.10;99.90
20398;DHT22;10358;49.590;11.030;2023-06-19T05:37:46;21.20;99.90
20398;DHT22;10358;49.590;11.030;2023-06-19T05:40:12;21.30;99.90
20398;DHT22;10358;49.590;11.030;2023-06-19T05:42:38;21.50;99.90
20398;DHT22;10358;49.590;11.030;2023-06-19T05:45:04;21.60;99.90
20398;DHT22;10358;49.590;11.030;2023-06-19T05:47:30;21.80;99.90
20398;DHT22;10358;49.590;11.030;2023-06-19T05:49:56;21.90;99.90
20398;DHT22;10358;49.590;11.030;2023-06-19T05:52:22;22.00;99.90
20398;DHT22;10358;49.590;11.030;2023-06-19T05:54:48;22.20;99.90
20398;DHT22;10358;49.590;11.030;2023-06-19T05:57:14;22.30;99.90
20398;DHT22;10358;49.590;11.030;2023-06-19T05:59:41;22.40;99.90
20398;DHT22;10358;49.590;11.030;2023-06-19T06:02:07;22.50;99.90
20398;DHT22;10358;49.590;11.030;2023-06-19T06:04:33;22.50;99.90
20398;DHT22;10358;49.590;11.030;2023-06-19T06:07:00;22.60;99.90
20398;DHT22;10358;49.590;11.030;2023-06-19T06:09:25;22.60;99.90
20398;DHT22;10358;49.590;11.030;2023-06-19T06:11:52;22.60;99.90
20398;DHT22;10358;49.590;11.030;2023-06-19T06:14:18;22.70;99.90
20398;DHT22;10358;49.590;11.030;2023-06-19T06:16:43;22.80;99.90
20398;DHT22;10358;49.590;11.030;2023-06-19T06:19:09;22.90;99.90
20398;DHT22;10358;49.590;11.030;2023-06-19T06:21:34;23.10;99.90
20398;DHT22;10358;49.590;11.030;2023-06-19T06:24:00;23.30;99.90
20398;DHT22;10358;49.590;11.030;2023-06-19T06:26:26;23.50;99.90
20398;DHT22;10358;49.590;11.030;2023-06-19T06:28:53;23.70;99.90
20398;DHT22;10358;49.590;11.030;2023-06-19T06:31:19;23.80;99.90
20398;DHT22;10358;49.590;11.030;2023-06-19T06:33:44;23.80;99.90
20398;DHT22;10358;49.590;11.030;2023-06-19T06:36:10;23.80;99.80
20398;DHT22;10358;49.590;11.030;2023-06-19T06:38:35;23.80;99.90
20398;DHT22;10358;49.590;11.030;2023-06-19T06:41:02;23.70;99.90
20398;DHT22;10358;49.590;11.030;2023-06-19T06:43:27;23.70;99.90
20398;DHT22;10358;49.590;11.030;2023-06-19T06:45:53;23.60;99.90
20398;DHT22;10358;49.590;11.030;2023-06-19T06:48:20;23.60;99.90
20398;DHT22;10358;49.590;11.030;2023-06-19T06:50:46;23.50;99.90
20398;DHT22;10358;49.590;11.030;2023-06-19T06:53:11;23.50;99.90
20398;DHT22;10358;49.590;11.030;2023-06-19T06:55:37;23.50;99.90
20398;DHT22;10358;49.590;11.030;2023-06-19T06:58:02;23.60;99.90
20398;DHT22;10358;49.590;11.030;2023-06-19T07:00:28;23.60;99.90
20398;DHT22;10358;49.590;11.030;2023-06-19T07:02:54;23.60;99.90
20398;DHT22;10358;49.590;11.030;2023-06-19T07:05:20;23.60;99.90
20398;DHT22;10358;49.590;11.030;2023-06-19T07:07:45;23.70;99.90
20398;DHT22;10358;49.590;11.030;2023-06-19T07:10:11;23.60;99.90
20398;DHT22;10358;49.590;11.030;2023-06-19T07:12:45;23.60;99.90
20398;DHT22;10358;49.590;11.030;2023-06-19T07:15:10;23.70;99.90
20398;DHT22;10358;49.590;11.030;2023-06-19T07:17:37;23.70;99.90
20398;DHT22;10358;49.590;11.030;2023-06-19T07:20:03;23.70;99.90
20398;DHT22;10358;49.590;11.030;2023-06-19T07:22:29;23.70;99.90
20398;DHT22;10358;49.590;11.030;2023-06-19T07:24:55;23.70;99.90
20398;DHT22;10358;49.590;11.030;2023-06-19T07:27:20;23.70;99.90
20398;DHT22;10358;49.590;11.030;2023-06-19T07:29:46;23.70;99.90
20398;DHT22;10358;49.590;11.030;2023-06-19T07:32:12;23.80;99.90
20398;DHT22;10358;49.590;11.030;2023-06-19T07:34:37;23.80;99.90
20398;DHT22;10358;49.590;11.030;2023-06-19T07:37:03;23.80;99.90
20398;DHT22;10358;49.590;11.030;2023-06-19T07:39:28;23.80;99.90
20398;DHT22;10358;49.590;11.030;2023-06-19T07:41:54;23.90;99.90
20398;DHT22;10358;49.590;11.030;2023-06-19T07:44:20;24.00;99.90
20398;DHT22;10358;49.590;11.030;2023-06-19T07:46:46;24.10;99.90
20398;DHT22;10358;49.590;11.030;2023-06-19T07:49:12;24.20;99.90
20398;DHT22;10358;49.590;11.030;2023-06-19T07:51:37;24.20;99.80
20398;DHT22;10358;49.590;11.030;2023-06-19T07:54:03;24.40;99.80
20398;DHT22;10358;49.590;11.030;2023-06-19T07:56:28;24.50;99.60
20398;DHT22;10358;49.590;11.030;2023-06-19T07:58:54;24.60;99.20
20398;DHT22;10358;49.590;11.030;2023-06-19T08:01:20;24.70;99.30
20398;DHT22;10358;49.590;11.030;2023-06-19T08:03:45;24.80;99.00
20398;DHT22;10358;49.590;11.030;2023-06-19T08:06:11;24.90;98.80
20398;DHT22;10358;49.590;11.030;2023-06-19T08:08:36;24.90;98.60
20398;DHT22;10358;49.590;11.030;2023-06-19T08:11:02;25.00;98.40
20398;DHT22;10358;49.590;11.030;2023-06-19T08:13:28;25.00;98.30
20398;DHT22;10358;49.590;11.030;2023-06-19T08:15:53;25.10;98.40
20398;DHT22;10358;49.590;11.030;2023-06-19T08:18:19;25.10;98.20
20398;DHT22;10358;49.590;11.030;2023-06-19T08:20:44;25.10;98.10
20398;DHT22;10358;49.590;11.030;2023-06-19T08:23:10;25.20;98.20
20398;DHT22;10358;49.590;11.030;2023-06-19T08:25:35;25.30;98.10
20398;DHT22;10358;49.590;11.030;2023-06-19T08:28:01;25.40;98.00
20398;DHT22;10358;49.590;11.030;2023-06-19T08:30:26;25.50;97.70
20398;DHT22;10358;49.590;11.030;2023-06-19T08:32:52;25.70;97.40
20398;DHT22;10358;49.590;11.030;2023-06-19T08:35:18;25.80;97.20
20398;DHT22;10358;49.590;11.030;2023-06-19T08:37:44;25.80;96.90
20398;DHT22;10358;49.590;11.030;2023-06-19T08:40:10;25.90;96.60
20398;DHT22;10358;49.590;11.030;2023-06-19T08:42:37;25.80;96.40
20398;DHT22;10358;49.590;11.030;2023-06-19T08:45:08;25.70;96.20
20398;DHT22;10358;49.590;11.030;2023-06-19T08:47:34;25.70;96.30
20398;DHT22;10358;49.590;11.030;2023-06-19T08:49:59;25.70;96.30
20398;DHT22;10358;49.590;11.030;2023-06-19T08:52:25;25.70;96.20
20398;DHT22;10358;49.590;11.030;2023-06-19T08:54:51;25.70;96.20
20398;DHT22;10358;49.590;11.030;2023-06-19T08:57:17;25.70;96.20
20398;DHT22;10358;49.590;11.030;2023-06-19T08:59:49;25.70;96.10
20398;DHT22;10358;49.590;11.030;2023-06-19T09:02:15;25.60;96.10
20398;DHT22;10358;49.590;11.030;2023-06-19T09:04:41;25.60;96.20
20398;DHT22;10358;49.590;11.030;2023-06-19T09:07:08;25.60;96.30
20398;DHT22;10358;49.590;11.030;2023-06-19T09:09:33;25.50;96.60
20398;DHT22;10358;49.590;11.030;2023-06-19T09:12:07;25.50;96.60
20398;DHT22;10358;49.590;11.030;2023-06-19T09:14:40;25.40;96.60
20398;DHT22;10358;49.590;11.030;2023-06-19T09:17:10;25.30;96.70
20398;DHT22;10358;49.590;11.030;2023-06-19T09:19:35;25.30;96.80
20398;DHT22;10358;49.590;11.030;2023-06-19T09:22:07;25.30;96.90
20398;DHT22;10358;49.590;11.030;2023-06-19T09:24:40;25.30;96.90
20398;DHT22;10358;49.590;11.030;2023-06-19T09:27:10;25.40;97.00
20398;DHT22;10358;49.590;11.030;2023-06-19T09:29:42;25.40;97.00
20398;DHT22;10358;49.590;11.030;2023-06-19T09:34:41;25.40;96.90
20398;DHT22;10358;49.590;11.030;2023-06-19T09:37:07;25.50;96.90
20398;DHT22;10358;49.590;11.030;2023-06-19T09:39:35;25.50;96.60
20398;DHT22;10358;49.590;11.030;2023-06-19T09:42:02;25.40;96.70
20398;DHT22;10358;49.590;11.030;2023-06-19T09:44:31;25.40;96.90
20398;DHT22;10358;49.590;11.030;2023-06-19T09:47:02;25.40;97.40
20398;DHT22;10358;49.590;11.030;2023-06-19T09:49:32;25.50;97.00
20398;DHT22;10358;49.590;11.030;2023-06-19T09:51:59;25.60;97.30
20398;DHT22;10358;49.590;11.030;2023-06-19T09:54:25;25.70;96.80
20398;DHT22;10358;49.590;11.030;2023-06-19T09:56:52;25.70;96.30
20398;DHT22;10358;49.590;11.030;2023-06-19T09:59:21;25.90;96.10
20398;DHT22;10358;49.590;11.030;2023-06-19T10:01:48;25.90;95.70
20398;DHT22;10358;49.590;11.030;2023-06-19T10:04:14;26.00;95.60
20398;DHT22;10358;49.590;11.030;2023-06-19T10:06:46;26.10;95.60
20398;DHT22;10358;49.590;11.030;2023-06-19T10:09:14;26.10;95.40
20398;DHT22;10358;49.590;11.030;2023-06-19T10:14:12;25.80;95.10
20398;DHT22;10358;49.590;11.030;2023-06-19T10:16:38;25.90;95.40
20398;DHT22;10358;49.590;11.030;2023-06-19T10:19:20;26.10;95.20
20398;DHT22;10358;49.590;11.030;2023-06-19T10:21:49;26.20;94.90
20398;DHT22;10358;49.590;11.030;2023-06-19T10:24:18;26.30;94.60
20398;DHT22;10358;49.590;11.030;2023-06-19T10:27:04;26.40;94.30
20398;DHT22;10358;49.590;11.030;2023-06-19T10:29:39;26.40;94.10
20398;DHT22;10358;49.590;11.030;2023-06-19T10:32:05;26.50;93.80
20398;DHT22;10358;49.590;11.030;2023-06-19T10:34:35;26.50;93.80
20398;DHT22;10358;49.590;11.030;2023-06-19T10:37:01;26.50;93.60
20398;DHT22;10358;49.590;11.030;2023-06-19T10:39:26;26.50;93.60
20398;DHT22;10358;49.590;11.030;2023-06-19T10:41:52;26.50;93.60
20398;DHT22;10358;49.590;11.030;2023-06-19T10:44:17;26.60;93.60
20398;DHT22;10358;49.590;11.030;2023-06-19T10:46:43;26.60;93.20
20398;DHT22;10358;49.590;11.030;2023-06-19T10:49:09;26.60;93.10
20398;DHT22;10358;49.590;11.030;2023-06-19T10:51:38;26.60;93.10
20398;DHT22;10358;49.590;11.030;2023-06-19T10:54:04;26.70;93.10
20398;DHT22;10358;49.590;11.030;2023-06-19T10:56:30;26.90;93.10
20398;DHT22;10358;49.590;11.030;2023-06-19T10:59:04;27.00;92.80
20398;DHT22;10358;49.590;11.030;2023-06-19T11:01:47;27.00;92.30
20398;DHT22;10358;49.590;11.030;2023-06-19T11:04:15;27.00;92.60
20398;DHT22;10358;49.590;11.030;2023-06-19T11:06:42;27.10;92.40
20398;DHT22;10358;49.590;11.030;2023-06-19T11:09:10;27.10;92.20
20398;DHT22;10358;49.590;11.030;2023-06-19T11:11:39;27.20;91.70
20398;DHT22;10358;49.590;11.030;2023-06-19T11:14:05;27.20;91.70
20398;DHT22;10358;49.590;11.030;2023-06-19T11:16:31;27.40;91.60
20398;DHT22;10358;49.590;11.030;2023-06-19T11:18:57;27.50;91.30
20398;DHT22;10358;49.590;11.030;2023-06-19T11:21:30;27.60;91.10
20398;DHT22;10358;49.590;11.030;2023-06-19T11:23:58;27.70;90.80
20398;DHT22;10358;49.590;11.030;2023-06-19T11:26:26;27.90;90.40
20398;DHT22;10358;49.590;11.030;2023-06-19T11:28:53;28.00;90.40
20398;DHT22;10358;49.590;11.030;2023-06-19T11:31:25;28.80;90.70
20398;DHT22;10358;49.590;11.030;2023-06-19T11:34:01;28.40;90.00
20398;DHT22;10358;49.590;11.030;2023-06-19T11:36:29;28.60;88.90
20398;DHT22;10358;49.590;11.030;2023-06-19T11:38:55;28.80;87.90
20398;DHT22;10358;49.590;11.030;2023-06-19T11:41:27;28.90;87.10
20398;DHT22;10358;49.590;11.030;2023-06-19T11:44:04;29.00;85.80
20398;DHT22;10358;49.590;11.030;2023-06-19T11:46:32;29.20;84.70
20398;DHT22;10358;49.590;11.030;2023-06-19T11:49:08;29.40;83.90
20398;DHT22;10358;49.590;11.030;2023-06-19T11:51:35;29.60;83.10
20398;DHT22;10358;49.590;11.030;2023-06-19T11:54:01;29.80;82.20
20398;DHT22;10358;49.590;11.030;2023-06-19T11:56:27;29.90;81.40
20398;DHT22;10358;49.590;11.030;2023-06-19T11:58:52;30.00;79.90
20398;DHT22;10358;49.590;11.030;2023-06-19T12:01:18;30.00;78.90
20398;DHT22;10358;49.590;11.030;2023-06-19T12:03:43;29.80;75.90
20398;DHT22;10358;49.590;11.030;2023-06-19T12:06:09;29.70;76.40
20398;DHT22;10358;49.590;11.030;2023-06-19T12:08:35;29.70;76.10
20398;DHT22;10358;49.590;11.030;2023-06-19T12:11:02;29.60;75.50
20398;DHT22;10358;49.590;11.030;2023-06-19T12:13:28;29.70;74.00
20398;DHT22;10358;49.590;11.030;2023-06-19T12:15:54;29.80;74.40
20398;DHT22;10358;49.590;11.030;2023-06-19T12:18:19;29.90;73.40
20398;DHT22;10358;49.590;11.030;2023-06-19T12:20:45;30.20;73.00
20398;DHT22;10358;49.590;11.030;2023-06-19T12:23:10;30.60;72.40
20398;DHT22;10358;49.590;11.030;2023-06-19T12:25:36;30.90;71.50
20398;DHT22;10358;49.590;11.030;2023-06-19T12:28:01;31.20;70.40
20398;DHT22;10358;49.590;11.030;2023-06-19T12:30:34;31.40;69.60
20398;DHT22;10358;49.590;11.030;2023-06-19T12:33:00;31.50;67.50
20398;DHT22;10358;49.590;11.030;2023-06-19T12:35:26;31.30;66.50
20398;DHT22;10358;49.590;11.030;2023-06-19T12:37:52;31.20;66.40
20398;DHT22;10358;49.590;11.030;2023-06-19T12:40:17;31.30;66.70
20398;DHT22;10358;49.590;11.030;2023-06-19T12:42:43;31.30;66.30
20398;DHT22;10358;49.590;11.030;2023-06-19T12:45:09;31.30;65.60
20398;DHT22;10358;49.590;11.030;2023-06-19T12:47:36;31.60;65.20
20398;DHT22;10358;49.590;11.030;2023-06-19T12:50:02;31.90;64.40
20398;DHT22;10358;49.590;11.030;2023-06-19T12:52:27;32.10;62.40
20398;DHT22;10358;49.590;11.030;2023-06-19T12:54:53;31.60;62.20
20398;DHT22;10358;49.590;11.030;2023-06-19T12:57:19;31.50;62.60
20398;DHT22;10358;49.590;11.030;2023-06-19T12:59:44;31.60;62.70
20398;DHT22;10358;49.590;11.030;2023-06-19T13:02:10;32.10;62.30
20398;DHT22;10358;49.590;11.030;2023-06-19T13:04:35;32.70;61.20
20398;DHT22;10358;49.590;11.030;2023-06-19T13:07:01;32.60;59.10
20398;DHT22;10358;49.590;11.030;2023-06-19T13:09:26;32.40;58.40
20398;DHT22;10358;49.590;11.030;2023-06-19T13:11:52;32.30;59.40
20398;DHT22;10358;49.590;11.030;2023-06-19T13:14:18;32.20;59.10
20398;DHT22;10358;49.590;11.030;2023-06-19T13:16:43;32.10;59.30
20398;DHT22;10358;49.590;11.030;2023-06-19T13:19:09;32.10;59.20
20398;DHT22;10358;49.590;11.030;2023-06-19T13:21:34;32.10;59.40
20398;DHT22;10358;49.590;11.030;2023-06-19T13:24:01;31.90;59.10
20398;DHT22;10358;49.590;11.030;2023-06-19T13:26:26;31.70;58.90
20398;DHT22;10358;49.590;11.030;2023-06-19T13:28:52;32.00;58.80
20398;DHT22;10358;49.590;11.030;2023-06-19T13:31:18;32.30;58.60
20398;DHT22;10358;49.590;11.030;2023-06-19T13:33:43;32.90;58.00
20398;DHT22;10358;49.590;11.030;2023-06-19T13:36:09;33.60;57.20
20398;DHT22;10358;49.590;11.030;2023-06-19T13:38:34;34.00;55.30
20398;DHT22;10358;49.590;11.030;2023-06-19T13:41:00;34.10;54.10
20398;DHT22;10358;49.590;11.030;2023-06-19T13:43:25;33.90;53.20
20398;DHT22;10358;49.590;11.030;2023-06-19T13:45:51;33.60;52.80
20398;DHT22;10358;49.590;11.030;2023-06-19T13:48:17;33.20;53.10
20398;DHT22;10358;49.590;11.030;2023-06-19T13:50:42;33.00;53.20
20398;DHT22;10358;49.590;11.030;2023-06-19T13:53:08;32.90;53.50
20398;DHT22;10358;49.590;11.030;2023-06-19T13:55:33;33.00;53.50
20398;DHT22;10358;49.590;11.030;2023-06-19T13:57:59;32.80;53.30
20398;DHT22;10358;49.590;11.030;2023-06-19T14:00:24;33.00;53.10
20398;DHT22;10358;49.590;11.030;2023-06-19T14:02:50;33.70;52.60
20398;DHT22;10358;49.590;11.030;2023-06-19T14:05:15;34.30;51.80
20398;DHT22;10358;49.590;11.030;2023-06-19T14:07:42;34.60;51.30
20398;DHT22;10358;49.590;11.030;2023-06-19T14:10:08;34.70;51.20
20398;DHT22;10358;49.590;11.030;2023-06-19T14:12:34;34.40;51.10
20398;DHT22;10358;49.590;11.030;2023-06-19T14:14:59;34.00;51.50
20398;DHT22;10358;49.590;11.030;2023-06-19T14:17:25;33.50;51.70
20398;DHT22;10358;49.590;11.030;2023-06-19T14:19:51;33.10;52.30
20398;DHT22;10358;49.590;11.030;2023-06-19T14:22:16;32.50;53.60
20398;DHT22;10358;49.590;11.030;2023-06-19T14:24:42;32.20;54.50
20398;DHT22;10358;49.590;11.030;2023-06-19T14:27:08;31.90;54.90
20398;DHT22;10358;49.590;11.030;2023-06-19T14:29:33;31.80;55.20
20398;DHT22;10358;49.590;11.030;2023-06-19T14:31:59;31.60;55.30
20398;DHT22;10358;49.590;11.030;2023-06-19T14:34:24;31.40;55.80
20398;DHT22;10358;49.590;11.030;2023-06-19T14:36:50;31.40;56.30
20398;DHT22;10358;49.590;11.030;2023-06-19T14:39:16;31.30;56.50
20398;DHT22;10358;49.590;11.030;2023-06-19T14:41:42;31.20;56.50
20398;DHT22;10358;49.590;11.030;2023-06-19T14:44:07;31.00;57.60
20398;DHT22;10358;49.590;11.030;2023-06-19T14:46:33;30.80;58.30
20398;DHT22;10358;49.590;11.030;2023-06-19T14:48:58;30.80;58.50
20398;DHT22;10358;49.590;11.030;2023-06-19T14:51:26;30.80;58.30
20398;DHT22;10358;49.590;11.030;2023-06-19T14:53:52;30.90;58.00
20398;DHT22;10358;49.590;11.030;2023-06-19T14:56:17;30.90;57.80
20398;DHT22;10358;49.590;11.030;2023-06-19T14:58:43;30.80;58.40
20398;DHT22;10358;49.590;11.030;2023-06-19T15:01:08;30.70;58.40
20398;DHT22;10358;49.590;11.030;2023-06-19T15:03:35;30.60;58.50
20398;DHT22;10358;49.590;11.030;2023-06-19T15:06:00;30.60;58.40
20398;DHT22;10358;49.590;11.030;2023-06-19T15:08:26;30.70;58.30
20398;DHT22;10358;49.590;11.030;2023-06-19T15:10:52;30.80;58.00
20398;DHT22;10358;49.590;11.030;2023-06-19T15:13:18;31.10;57.80
20398;DHT22;10358;49.590;11.030;2023-06-19T15:15:44;31.30;57.60